Time;durP1;ratioP1;P1;durP2;ratioP2;P2;SDS_P1;SDS_P2;PMS_P1;PMS_P2;Temp;Humidity;BMP_temperature;BMP_pressure;BME280_temperature;BME280_humidity;BME280_pressure;Samples;Min_cycle;Max_cycle;Signal;HPM_P1;HPM_P2
2022/11/20 00:01:29;;;;;;;29.70;22.57;;;5.60;99.90;;;;;;5009305;28;20397;-30
2022/11/20 00:03:58;;;;;;;29.57;22.37;;;5.60;99.90;;;;;;5009177;28;20321;-30
2022/11/20 00:06:26;;;;;;;32.60;24.37;;;5.70;99.90;;;;;;5008926;28;20197;-30
2022/11/20 00:08:58;;;;;;;28.30;22.23;;;5.70;99.90;;;;;;5008301;28;20206;-29
2022/11/20 00:11:33;;;;;;;30.67;23.17;;;5.70;99.90;;;;;;5006949;28;20752;-30
2022/11/20 00:14:02;;;;;;;30.87;21.97;;;5.70;99.90;;;;;;5006742;28;20300;-29
2022/11/20 00:16:34;;;;;;;30.30;22.67;;;5.80;99.90;;;;;;5009079;28;20717;-30
2022/11/20 00:19:02;;;;;;;29.13;23.17;;;5.80;99.90;;;;;;5006719;28;20202;-30
2022/11/20 00:21:30;;;;;;;31.07;22.33;;;5.80;99.90;;;;;;5009118;28;20213;-30
2022/11/20 00:23:57;;;;;;;30.73;23.77;;;5.80;99.90;;;;;;5007543;28;20304;-30
2022/11/20 00:26:28;;;;;;;30.57;22.87;;;5.80;99.90;;;;;;5008605;28;20627;-29
2022/11/20 00:28:58;;;;;;;31.50;23.20;;;5.80;99.90;;;;;;5006044;28;20636;-30
2022/11/20 00:31:25;;;;;;;28.57;22.43;;;5.80;99.90;;;;;;5008427;28;20646;-29
2022/11/20 00:33:55;;;;;;;29.97;22.70;;;5.80;99.90;;;;;;5007711;28;20706;-29
2022/11/20 00:36:25;;;;;;;27.37;20.83;;;5.80;99.90;;;;;;5008511;28;20666;-30
2022/11/20 00:38:53;;;;;;;28.53;21.60;;;5.80;99.90;;;;;;5008376;28;20945;-31
2022/11/20 00:41:24;;;;;;;30.77;22.30;;;5.80;99.90;;;;;;5007315;28;20686;-30
2022/11/20 00:43:58;;;;;;;30.33;22.93;;;5.80;99.90;;;;;;5007594;28;20621;-30
2022/11/20 00:46:29;;;;;;;28.43;21.83;;;5.80;99.90;;;;;;5007721;28;20313;-29
2022/11/20 00:48:58;;;;;;;27.20;21.77;;;5.90;99.90;;;;;;4997005;28;20230;-29
2022/11/20 00:51:28;;;;;;;27.97;22.13;;;5.90;99.90;;;;;;4988105;28;20316;-30
2022/11/20 00:53:57;;;;;;;29.67;22.03;;;5.90;99.90;;;;;;5001802;28;20213;-30
2022/11/20 00:56:26;;;;;;;29.07;22.37;;;5.90;99.90;;;;;;4987943;28;20847;-30
2022/11/20 00:58:54;;;;;;;28.60;21.10;;;5.90;99.90;;;;;;4986488;28;20217;-29
2022/11/20 01:01:25;;;;;;;28.07;21.80;;;5.90;99.90;;;;;;4990459;28;20225;-30
2022/11/20 01:03:54;;;;;;;28.30;21.83;;;6.00;99.90;;;;;;5007320;28;20267;-29
2022/11/20 01:06:50;;;;;;;28.20;21.90;;;6.00;99.90;;;;;;5007328;28;20642;-29
2022/11/20 01:09:20;;;;;;;30.27;22.13;;;6.00;99.90;;;;;;5001441;28;20307;-29
2022/11/20 01:11:49;;;;;;;29.83;22.20;;;6.00;99.90;;;;;;5005576;28;20189;-29
2022/11/20 01:14:19;;;;;;;28.83;22.17;;;6.10;99.90;;;;;;5005960;28;20201;-29
2022/11/20 01:16:51;;;;;;;29.20;22.93;;;6.10;99.90;;;;;;5007938;28;20221;-29
2022/11/20 01:19:24;;;;;;;28.37;22.13;;;6.10;99.90;;;;;;5005876;28;20679;-29
2022/11/20 01:21:53;;;;;;;31.20;22.20;;;6.00;99.90;;;;;;5007344;28;20201;-29
2022/11/20 01:24:22;;;;;;;31.63;22.30;;;6.00;99.90;;;;;;5006351;28;20732;-29
2022/11/20 01:26:51;;;;;;;33.13;23.50;;;6.00;99.90;;;;;;5007224;28;20202;-29
2022/11/20 01:29:22;;;;;;;30.77;22.70;;;6.00;99.90;;;;;;5005631;28;20631;-29
2022/11/20 01:31:52;;;;;;;32.93;23.43;;;6.00;99.90;;;;;;5007118;28;20320;-29
2022/11/20 01:34:24;;;;;;;29.80;23.07;;;6.00;99.90;;;;;;5007434;28;20580;-29
2022/11/20 01:36:56;;;;;;;33.83;24.57;;;6.00;99.90;;;;;;5007272;28;20711;-29
2022/11/20 01:39:25;;;;;;;33.90;24.23;;;6.10;99.90;;;;;;5005818;28;20644;-29
2022/11/20 01:44:59;;;;;;;31.30;24.73;;;6.10;99.90;;;;;;5005824;28;20874;-29
2022/11/20 01:47:40;;;;;;;32.23;24.37;;;6.20;99.90;;;;;;5007221;28;20259;-29
2022/11/20 01:50:26;;;;;;;33.73;24.77;;;6.20;99.90;;;;;;5006862;28;20226;-30
2022/11/20 01:53:08;;;;;;;34.80;25.03;;;6.20;99.90;;;;;;5005876;28;20210;-29
2022/11/20 01:55:41;;;;;;;31.23;23.60;;;6.20;99.90;;;;;;5021599;28;20247;-29
2022/11/20 01:58:10;;;;;;;31.43;24.13;;;6.20;99.90;;;;;;5004420;28;20235;-30
2022/11/20 02:00:40;;;;;;;31.30;23.80;;;6.20;99.90;;;;;;5006380;28;20233;-29
2022/11/20 02:03:16;;;;;;;31.20;23.30;;;6.20;99.90;;;;;;5006371;28;20675;-29
2022/11/20 02:06:02;;;;;;;33.57;24.10;;;6.20;99.90;;;;;;5020628;28;20406;-29
2022/11/20 02:08:33;;;;;;;32.87;24.00;;;6.30;99.90;;;;;;5005394;28;20255;-29
2022/11/20 02:11:00;;;;;;;32.23;23.17;;;6.30;99.90;;;;;;5005799;28;20233;-29
2022/11/20 02:13:45;;;;;;;33.10;23.33;;;6.30;99.90;;;;;;5006157;28;20222;-29
2022/11/20 02:16:22;;;;;;;36.37;24.20;;;6.30;99.90;;;;;;5005687;28;20202;-29
2022/11/20 02:18:51;;;;;;;34.77;23.23;;;6.30;99.90;;;;;;5021004;28;20742;-29
2022/11/20 02:21:36;;;;;;;33.47;23.50;;;6.30;99.90;;;;;;5005939;28;20225;-29
2022/11/20 02:24:05;;;;;;;36.83;24.87;;;6.30;99.90;;;;;;5005573;28;20267;-29
2022/11/20 02:27:05;;;;;;;37.23;24.07;;;6.20;99.90;;;;;;5006170;28;20198;-29
2022/11/20 02:29:52;;;;;;;34.93;23.27;;;6.20;99.90;;;;;;5003882;28;20216;-29
2022/11/20 02:32:27;;;;;;;35.03;23.87;;;6.20;99.90;;;;;;5021597;28;20350;-29
2022/11/20 02:34:54;;;;;;;35.90;23.87;;;6.20;99.90;;;;;;5005515;28;20690;-29
2022/11/20 02:37:22;;;;;;;32.67;24.47;;;6.20;99.90;;;;;;4996582;28;20895;-29
2022/11/20 02:39:51;;;;;;;36.90;25.37;;;6.20;99.90;;;;;;4985978;28;20616;-29
2022/11/20 02:42:23;;;;;;;37.67;25.17;;;6.20;99.90;;;;;;5001152;28;20316;-29
2022/11/20 02:44:55;;;;;;;40.37;26.80;;;6.20;99.90;;;;;;4993763;28;20665;-29
2022/11/20 02:47:24;;;;;;;36.80;24.60;;;6.30;99.90;;;;;;5006123;28;20206;-30
2022/11/20 02:49:51;;;;;;;36.57;25.10;;;6.30;99.90;;;;;;5020562;28;20547;-29
2022/11/20 02:52:21;;;;;;;39.70;25.40;;;6.30;99.90;;;;;;5003668;28;20763;-29
2022/11/20 02:54:48;;;;;;;37.47;26.13;;;6.30;99.90;;;;;;5004545;28;20304;-29
2022/11/20 02:57:15;;;;;;;40.90;26.67;;;6.30;99.90;;;;;;5006472;28;20201;-29
2022/11/20 02:59:42;;;;;;;39.93;26.37;;;6.30;99.90;;;;;;5005798;28;20288;-29
2022/11/20 03:02:12;;;;;;;41.17;26.47;;;6.30;99.90;;;;;;5005215;28;20314;-29
2022/11/20 03:04:41;;;;;;;40.33;27.20;;;6.30;99.90;;;;;;5005552;28;20205;-29
2022/11/20 03:07:09;;;;;;;38.03;26.07;;;6.40;99.90;;;;;;5005673;28;20229;-29
2022/11/20 03:09:41;;;;;;;42.30;25.90;;;6.30;99.90;;;;;;5004154;28;20296;-30
2022/11/20 03:12:08;;;;;;;42.60;28.03;;;6.40;99.90;;;;;;5005430;28;20326;-29
2022/11/20 03:14:35;;;;;;;45.20;28.67;;;6.40;99.90;;;;;;5002729;28;20206;-29
2022/11/20 03:17:02;;;;;;;42.17;27.27;;;6.40;99.90;;;;;;5004284;28;20206;-29
2022/11/20 03:19:30;;;;;;;43.57;26.83;;;6.40;99.90;;;;;;5004988;28;20245;-29
2022/11/20 03:21:57;;;;;;;43.77;28.80;;;6.40;99.90;;;;;;5005271;28;20324;-29
2022/11/20 03:24:26;;;;;;;43.83;27.67;;;6.40;99.90;;;;;;5004984;28;20205;-29
2022/11/20 03:26:55;;;;;;;44.17;28.40;;;6.40;99.90;;;;;;5005658;28;20557;-29
2022/11/20 03:29:22;;;;;;;46.03;29.07;;;6.40;99.90;;;;;;5004739;28;20631;-29
2022/11/20 03:31:52;;;;;;;45.07;29.13;;;6.30;99.90;;;;;;4992699;28;20198;-30
2022/11/20 03:34:21;;;;;;;44.77;27.33;;;6.30;99.90;;;;;;4985734;28;20234;-29
2022/11/20 03:36:51;;;;;;;46.33;28.17;;;6.30;99.90;;;;;;4985734;28;20206;-29
2022/11/20 03:39:22;;;;;;;43.30;28.33;;;6.30;99.90;;;;;;4985187;28;20305;-29
2022/11/20 03:41:52;;;;;;;45.23;28.20;;;6.40;99.90;;;;;;4985685;28;20218;-29
2022/11/20 03:44:21;;;;;;;45.93;29.07;;;6.40;99.90;;;;;;4990401;28;20232;-29
2022/11/20 03:46:51;;;;;;;44.90;27.97;;;6.40;99.90;;;;;;5005325;28;20284;-29
2022/11/20 03:49:18;;;;;;;45.67;28.13;;;6.40;99.90;;;;;;5005308;28;20646;-29
2022/11/20 03:51:46;;;;;;;45.57;27.03;;;6.40;99.90;;;;;;5005350;28;20217;-30
2022/11/20 03:54:16;;;;;;;45.60;28.77;;;6.40;99.90;;;;;;5004817;28;20283;-29
2022/11/20 03:56:43;;;;;;;43.20;27.40;;;6.40;99.90;;;;;;5005618;28;20208;-29
2022/11/20 03:59:11;;;;;;;45.47;28.00;;;6.50;99.90;;;;;;5004550;28;20245;-29
2022/11/20 04:01:40;;;;;;;40.70;26.57;;;6.50;99.90;;;;;;5005192;28;20225;-29
2022/11/20 04:04:16;;;;;;;44.53;28.10;;;6.50;99.90;;;;;;5004998;28;20216;-29
2022/11/20 04:06:45;;;;;;;41.00;27.37;;;6.50;99.90;;;;;;5004847;28;20198;-29
2022/11/20 04:09:13;;;;;;;41.77;25.53;;;6.40;99.90;;;;;;5004274;28;20200;-29
2022/11/20 04:11:40;;;;;;;42.20;26.60;;;6.40;99.90;;;;;;5004835;28;20309;-29
2022/11/20 04:14:13;;;;;;;41.40;27.60;;;6.40;99.90;;;;;;5003987;28;20292;-29
2022/11/20 04:16:40;;;;;;;43.90;28.20;;;6.40;99.90;;;;;;5005118;28;20637;-29
2022/11/20 04:19:14;;;;;;;41.40;26.03;;;6.40;99.90;;;;;;5004882;28;20254;-29
2022/11/20 04:21:47;;;;;;;39.77;26.37;;;6.40;99.90;;;;;;5023489;28;20236;-29
2022/11/20 04:24:18;;;;;;;37.87;26.30;;;6.40;99.90;;;;;;5008239;28;20330;-30
2022/11/20 04:26:48;;;;;;;44.13;27.33;;;6.40;99.90;;;;;;5004464;28;20641;-29
2022/11/20 04:29:15;;;;;;;40.57;26.23;;;6.40;99.90;;;;;;5008231;28;20649;-29
2022/11/20 04:31:46;;;;;;;42.93;27.13;;;6.40;99.90;;;;;;5006931;28;20670;-29
2022/11/20 04:34:17;;;;;;;38.07;26.77;;;6.30;99.90;;;;;;5007988;28;20197;-29
2022/11/20 04:36:49;;;;;;;44.77;27.53;;;6.30;99.90;;;;;;5008172;28;20589;-29
2022/11/20 04:39:19;;;;;;;39.07;26.80;;;6.30;99.90;;;;;;5007446;28;20204;-29
2022/11/20 04:41:46;;;;;;;38.27;26.27;;;6.30;99.90;;;;;;5008365;28;20256;-29
2022/11/20 04:44:18;;;;;;;41.20;26.17;;;6.30;99.90;;;;;;5006987;28;20707;-29
2022/11/20 04:46:48;;;;;;;39.00;24.73;;;6.30;99.90;;;;;;5022940;28;20206;-29
2022/11/20 04:49:15;;;;;;;39.23;27.03;;;6.20;99.90;;;;;;5008185;28;20229;-29
2022/11/20 04:51:42;;;;;;;38.80;25.07;;;6.20;99.90;;;;;;5022756;28;20213;-29
2022/11/20 04:54:13;;;;;;;37.13;24.13;;;6.30;99.90;;;;;;5021610;28;20224;-29
2022/11/20 04:56:40;;;;;;;38.90;25.40;;;6.20;99.90;;;;;;5007633;28;20573;-29
2022/11/20 04:59:09;;;;;;;45.47;25.87;;;6.20;99.90;;;;;;5008039;28;20615;-29
2022/11/20 05:01:42;;;;;;;38.87;24.63;;;6.20;99.90;;;;;;5007921;28;20588;-29
2022/11/20 05:04:09;;;;;;;35.07;23.00;;;6.20;99.90;;;;;;5007611;28;20208;-29
2022/11/20 05:06:38;;;;;;;41.50;25.17;;;6.20;99.90;;;;;;5007648;28;20579;-29
2022/11/20 05:09:08;;;;;;;39.17;25.47;;;6.20;99.90;;;;;;5006727;28;20202;-29
2022/11/20 05:11:39;;;;;;;38.57;23.50;;;6.20;99.90;;;;;;5006916;28;20209;-29
2022/11/20 05:14:06;;;;;;;37.77;24.40;;;6.20;99.90;;;;;;5007628;28;20672;-29
2022/11/20 05:16:34;;;;;;;34.87;24.13;;;6.20;99.90;;;;;;5007565;28;20202;-29
2022/11/20 05:19:03;;;;;;;36.27;24.70;;;6.10;99.90;;;;;;5005278;28;20229;-29
2022/11/20 05:21:32;;;;;;;35.07;23.03;;;6.10;99.90;;;;;;5001530;28;20256;-29
2022/11/20 05:23:59;;;;;;;33.17;23.27;;;6.10;99.90;;;;;;5006961;28;20289;-29
2022/11/20 05:26:28;;;;;;;33.90;23.53;;;6.10;99.90;;;;;;5007505;28;20398;-29
2022/11/20 05:28:55;;;;;;;37.90;24.70;;;6.10;99.90;;;;;;5007311;28;20809;-30
2022/11/20 05:31:27;;;;;;;34.27;22.93;;;6.20;99.90;;;;;;5006393;28;20233;-29
2022/11/20 05:33:57;;;;;;;32.47;21.77;;;6.20;99.90;;;;;;5005670;28;20210;-29
2022/11/20 05:36:24;;;;;;;36.73;21.83;;;6.20;99.90;;;;;;5007022;28;20316;-29
2022/11/20 05:38:51;;;;;;;34.27;22.77;;;6.20;99.90;;;;;;5005299;28;20220;-29
2022/11/20 05:41:25;;;;;;;33.03;22.00;;;6.20;99.90;;;;;;5007274;28;20625;-29
2022/11/20 05:43:56;;;;;;;36.07;23.67;;;6.20;99.90;;;;;;5003959;28;20640;-29
2022/11/20 05:46:25;;;;;;;32.73;22.50;;;6.30;99.90;;;;;;5007010;28;20698;-29
2022/11/20 05:48:58;;;;;;;38.20;23.90;;;6.30;99.90;;;;;;5006214;28;20260;-29
2022/11/20 05:51:28;;;;;;;36.67;24.00;;;6.30;99.90;;;;;;5005473;28;20206;-29
2022/11/20 05:53:58;;;;;;;39.17;23.97;;;6.30;99.90;;;;;;5006291;28;20405;-29
2022/11/20 05:56:28;;;;;;;36.63;22.73;;;6.40;99.90;;;;;;5021711;28;20241;-29
2022/11/20 05:58:58;;;;;;;35.93;22.30;;;6.30;99.90;;;;;;5005314;28;20229;-29
2022/11/20 06:01:27;;;;;;;35.90;23.07;;;6.40;99.90;;;;;;5006338;28;20245;-29
2022/11/20 06:03:54;;;;;;;35.37;23.73;;;6.40;99.90;;;;;;5009558;28;20241;-29
2022/11/20 06:06:27;;;;;;;34.40;23.37;;;6.40;99.90;;;;;;5023330;28;20254;-29
2022/11/20 06:08:58;;;;;;;34.63;22.20;;;6.40;99.90;;;;;;5011367;28;20204;-29
2022/11/20 06:11:25;;;;;;;38.07;24.43;;;6.40;99.90;;;;;;5016674;28;20228;-29
2022/11/20 06:13:55;;;;;;;38.50;23.53;;;6.40;99.90;;;;;;5000602;28;20717;-29
2022/11/20 06:16:31;;;;;;;35.70;22.80;;;6.40;99.90;;;;;;5004357;28;20248;-29
2022/11/20 06:18:58;;;;;;;36.20;21.97;;;6.40;99.90;;;;;;5021722;28;20294;-29
2022/11/20 06:21:26;;;;;;;33.87;22.27;;;6.40;99.90;;;;;;5025887;28;20322;-30
2022/11/20 06:23:53;;;;;;;36.63;22.73;;;6.40;99.90;;;;;;5010900;28;20701;-29
2022/11/20 06:26:26;;;;;;;39.63;23.03;;;6.50;99.90;;;;;;5006069;28;20311;-29
2022/11/20 06:28:55;;;;;;;38.67;22.53;;;6.50;99.90;;;;;;5006051;28;20738;-29
2022/11/20 06:31:26;;;;;;;38.63;23.53;;;6.50;99.90;;;;;;5005807;28;20218;-29
2022/11/20 06:33:58;;;;;;;39.30;23.67;;;6.50;99.90;;;;;;5005708;28;20700;-29
2022/11/20 06:36:27;;;;;;;40.80;23.87;;;6.50;99.90;;;;;;5006328;28;20198;-29
2022/11/20 06:38:54;;;;;;;42.53;24.30;;;6.50;99.90;;;;;;5005206;28;20310;-29
2022/11/20 06:41:22;;;;;;;44.77;25.37;;;6.50;99.90;;;;;;5005716;28;20739;-29
2022/11/20 06:43:52;;;;;;;42.50;24.20;;;6.50;99.90;;;;;;5004275;28;20776;-29
2022/11/20 06:46:20;;;;;;;45.07;25.33;;;6.50;99.90;;;;;;4998260;28;20760;-29
2022/11/20 06:48:48;;;;;;;45.30;26.03;;;6.50;99.90;;;;;;4990890;28;20302;-32
2022/11/20 06:51:16;;;;;;;53.70;27.80;;;6.60;99.90;;;;;;5003654;28;20685;-29
2022/11/20 06:53:45;;;;;;;52.60;26.57;;;6.60;99.90;;;;;;5003671;28;20229;-29
2022/11/20 06:56:12;;;;;;;50.80;26.47;;;6.60;99.90;;;;;;5007862;28;20236;-29
2022/11/20 06:58:42;;;;;;;48.67;25.73;;;6.60;99.90;;;;;;5016502;28;20654;-30
2022/11/20 07:01:13;;;;;;;46.87;24.80;;;6.60;99.90;;;;;;5015289;28;20218;-29
2022/11/20 07:03:43;;;;;;;49.00;25.13;;;6.60;99.90;;;;;;5024022;28;20672;-29
2022/11/20 07:06:10;;;;;;;51.10;25.63;;;6.60;99.90;;;;;;5025062;28;20219;-30
2022/11/20 07:08:40;;;;;;;53.53;27.73;;;6.60;99.90;;;;;;5009779;28;20197;-29
2022/11/20 07:11:11;;;;;;;54.97;27.27;;;6.60;99.90;;;;;;5005413;28;20680;-29
2022/11/20 07:13:38;;;;;;;57.53;27.20;;;6.60;99.90;;;;;;5003914;28;20232;-29
2022/11/20 07:16:07;;;;;;;55.53;26.60;;;6.70;99.90;;;;;;5006930;28;20236;-29
2022/11/20 07:18:39;;;;;;;56.63;26.40;;;6.70;99.90;;;;;;5004840;28;20574;-29
2022/11/20 07:21:10;;;;;;;53.13;26.23;;;6.70;99.90;;;;;;5006041;28;20217;-29
2022/11/20 07:23:38;;;;;;;55.77;27.43;;;6.70;99.90;;;;;;5018823;28;21015;-29
2022/11/20 07:26:10;;;;;;;62.30;27.40;;;6.70;99.90;;;;;;5016717;28;20627;-29
2022/11/20 07:28:38;;;;;;;56.63;27.53;;;6.70;99.90;;;;;;5008853;28;20615;-29
2022/11/20 07:31:07;;;;;;;52.80;26.27;;;6.70;99.90;;;;;;5017383;28;20315;-29
2022/11/20 07:33:37;;;;;;;57.87;27.10;;;6.70;99.90;;;;;;5015300;28;20732;-30
2022/11/20 07:36:05;;;;;;;56.73;27.97;;;6.70;99.90;;;;;;4999775;28;20305;-29
2022/11/20 07:38:34;;;;;;;60.60;28.23;;;6.80;99.90;;;;;;4997850;28;20263;-29
2022/11/20 07:41:04;;;;;;;61.17;28.30;;;6.80;99.90;;;;;;5000982;28;20764;-29
2022/11/20 07:43:31;;;;;;;54.17;28.00;;;6.80;99.90;;;;;;5012401;28;20827;-29
2022/11/20 07:46:05;;;;;;;56.33;27.13;;;6.80;99.90;;;;;;5015881;28;20200;-30
2022/11/20 07:48:37;;;;;;;58.67;28.53;;;6.80;99.90;;;;;;4997646;28;20237;-29
2022/11/20 07:51:05;;;;;;;58.80;28.17;;;6.90;99.90;;;;;;5001570;28;20672;-29
2022/11/20 07:53:37;;;;;;;56.90;27.40;;;6.90;99.90;;;;;;5008081;28;20197;-29
2022/11/20 07:56:04;;;;;;;60.63;28.07;;;6.90;99.90;;;;;;5013905;28;20275;-29
2022/11/20 07:58:34;;;;;;;54.13;26.17;;;6.90;99.90;;;;;;5002091;28;20378;-29
2022/11/20 08:01:06;;;;;;;57.83;28.30;;;6.90;99.90;;;;;;5002321;28;20284;-29
2022/11/20 08:03:37;;;;;;;63.50;28.13;;;7.00;99.90;;;;;;5006228;28;20275;-29
2022/11/20 08:06:05;;;;;;;62.20;28.27;;;7.00;99.90;;;;;;4990545;28;20307;-29
2022/11/20 08:08:32;;;;;;;54.63;27.53;;;7.00;99.90;;;;;;4995535;28;20229;-29
2022/11/20 08:16:35;;;;;;;57.83;28.50;;;7.10;99.90;;;;;;5014422;28;20206;-29
2022/11/20 08:19:02;;;;;;;58.43;28.53;;;7.10;99.90;;;;;;4999290;28;20194;-29
2022/11/20 08:21:33;;;;;;;62.67;29.27;;;7.10;99.90;;;;;;5018109;28;20319;-29
2022/11/20 08:24:09;;;;;;;58.37;29.43;;;7.20;99.90;;;;;;5012583;28;20227;-29
2022/11/20 08:26:40;;;;;;;56.30;27.83;;;7.20;99.90;;;;;;5042794;28;20200;-29
2022/11/20 08:29:10;;;;;;;55.33;28.20;;;7.30;99.90;;;;;;5010492;28;20241;-29
2022/11/20 08:31:39;;;;;;;55.67;28.93;;;7.30;99.90;;;;;;5004869;28;20237;-29
2022/11/20 08:34:06;;;;;;;57.53;27.90;;;7.30;99.90;;;;;;4996237;28;20237;-30
2022/11/20 08:36:43;;;;;;;60.03;29.00;;;7.40;99.90;;;;;;5006626;28;20210;-30
2022/11/20 08:39:15;;;;;;;61.23;29.77;;;7.40;99.90;;;;;;5015760;28;20750;-30
2022/11/20 08:41:45;;;;;;;54.90;27.70;;;7.50;99.90;;;;;;5016036;28;20231;-29
2022/11/20 08:44:17;;;;;;;56.07;28.70;;;7.50;99.90;;;;;;5024964;28;20236;-30
2022/11/20 08:46:46;;;;;;;51.00;25.13;;;7.50;99.90;;;;;;5028810;28;20549;-29
2022/11/20 08:49:14;;;;;;;65.60;29.13;;;7.50;99.90;;;;;;5019364;28;20233;-30
2022/11/20 08:51:44;;;;;;;56.37;28.10;;;7.50;99.90;;;;;;5004351;28;20213;-30
2022/11/20 08:54:12;;;;;;;57.53;28.87;;;7.60;99.90;;;;;;5006364;28;20197;-30
2022/11/20 08:56:41;;;;;;;58.87;29.73;;;7.60;99.90;;;;;;5006704;28;20229;-30
2022/11/20 08:59:09;;;;;;;53.63;27.80;;;7.70;99.90;;;;;;5016782;28;20692;-30
2022/11/20 09:01:56;;;;;;;58.17;28.27;;;7.80;99.90;;;;;;5008018;28;20537;-30
2022/11/20 09:04:28;;;;;;;55.70;27.30;;;7.80;99.90;;;;;;5012151;28;20283;-31
2022/11/20 09:06:55;;;;;;;57.37;27.77;;;7.80;99.90;;;;;;5017890;28;20643;-30
2022/11/20 09:09:24;;;;;;;59.83;28.97;;;7.80;99.90;;;;;;5003228;28;20256;-30
2022/11/20 09:11:54;;;;;;;53.10;27.67;;;7.90;99.90;;;;;;5002906;28;20208;-30
2022/11/20 09:14:21;;;;;;;58.53;28.50;;;7.90;99.90;;;;;;5013870;28;20312;-30
2022/11/20 09:16:48;;;;;;;57.27;28.27;;;7.90;99.90;;;;;;5012185;28;20843;-30
2022/11/20 09:19:18;;;;;;;54.23;27.67;;;8.00;99.90;;;;;;5007425;28;20213;-30
2022/11/20 09:22:05;;;;;;;54.50;27.57;;;8.00;99.90;;;;;;5004395;28;20234;-30
2022/11/20 09:24:32;;;;;;;54.13;26.60;;;8.10;99.90;;;;;;5005486;28;20235;-30
2022/11/20 09:27:05;;;;;;;57.57;27.00;;;8.10;99.90;;;;;;5011641;28;20283;-30
2022/11/20 09:29:34;;;;;;;49.77;25.53;;;8.20;99.90;;;;;;5008264;28;20213;-30
2022/11/20 09:32:02;;;;;;;52.27;26.00;;;8.20;99.90;;;;;;4999726;28;20301;-30
2022/11/20 09:34:29;;;;;;;54.43;26.20;;;8.30;99.90;;;;;;5012528;28;20201;-30
2022/11/20 09:36:56;;;;;;;52.70;26.53;;;8.40;99.90;;;;;;4999668;28;20209;-29
2022/11/20 09:39:38;;;;;;;50.57;25.43;;;8.40;99.90;;;;;;5005806;28;20225;-30
2022/11/20 09:42:39;;;;;;;51.40;26.13;;;8.40;99.90;;;;;;5005523;28;20227;-30
2022/11/20 09:45:15;;;;;;;52.30;26.90;;;8.50;99.90;;;;;;4998115;28;20310;-30
2022/11/20 09:47:48;;;;;;;48.27;25.03;;;8.50;99.90;;;;;;4992269;28;20260;-30
2022/11/20 09:50:41;;;;;;;51.33;25.10;;;8.60;99.90;;;;;;4999282;28;20269;-30
2022/11/20 09:53:13;;;;;;;48.03;25.47;;;8.60;99.90;;;;;;4998804;28;20602;-30
2022/11/20 09:55:43;;;;;;;50.53;25.17;;;8.60;99.90;;;;;;4991689;28;20214;-30
2022/11/20 09:58:37;;;;;;;52.10;26.07;;;8.70;99.90;;;;;;5010339;28;20225;-30
2022/11/20 10:01:25;;;;;;;53.90;26.17;;;8.70;99.90;;;;;;5004057;28;20202;-30
2022/11/20 10:03:55;;;;;;;45.23;23.90;;;8.80;99.90;;;;;;5004669;28;20201;-30
2022/11/20 10:06:36;;;;;;;45.60;23.27;;;8.80;99.90;;;;;;5015715;28;20201;-30
2022/11/20 10:09:10;;;;;;;46.57;23.53;;;8.90;99.90;;;;;;5004874;28;20651;-30
2022/11/20 10:11:52;;;;;;;45.57;22.30;;;8.90;99.90;;;;;;5004606;28;20204;-29
2022/11/20 10:15:16;;;;;;;39.77;21.67;;;9.00;99.90;;;;;;5004392;28;20205;-29
2022/11/20 10:17:55;;;;;;;41.73;21.50;;;9.00;99.90;;;;;;4981105;28;20241;-30
2022/11/20 10:20:40;;;;;;;40.07;21.97;;;9.10;99.90;;;;;;4991899;28;20260;-29
2022/11/20 10:23:16;;;;;;;34.77;19.97;;;9.10;99.90;;;;;;4997781;28;20279;-30
2022/11/20 10:26:00;;;;;;;36.70;20.60;;;9.20;99.90;;;;;;4986515;28;20632;-30
2022/11/20 10:28:46;;;;;;;37.77;21.27;;;9.20;99.90;;;;;;4997480;28;20201;-29
2022/11/20 10:31:36;;;;;;;38.63;20.93;;;9.30;99.90;;;;;;5004074;28;20211;-29
2022/11/20 10:34:14;;;;;;;35.10;20.30;;;9.30;99.90;;;;;;5011832;28;20295;-29
2022/11/20 10:37:19;;;;;;;38.40;20.73;;;9.40;99.90;;;;;;4991095;28;20206;-29
2022/11/20 10:40:13;;;;;;;34.60;19.37;;;9.40;99.90;;;;;;4985182;28;20225;-29
2022/11/20 10:43:16;;;;;;;29.53;17.73;;;9.50;99.90;;;;;;5006768;28;20563;-30
2022/11/20 10:46:00;;;;;;;31.33;18.43;;;9.50;99.90;;;;;;5007018;28;20201;-30
2022/11/20 10:48:30;;;;;;;30.33;17.73;;;9.60;99.90;;;;;;5009991;28;20241;-29
2022/11/20 10:51:57;;;;;;;28.30;15.83;;;9.60;99.90;;;;;;5006977;28;20213;-29
2022/11/20 10:54:32;;;;;;;29.13;16.37;;;9.70;99.90;;;;;;4981095;28;20210;-30
2022/11/20 10:57:20;;;;;;;28.07;16.63;;;9.70;99.90;;;;;;4974139;28;20195;-29
2022/11/20 11:00:22;;;;;;;25.60;15.47;;;9.80;99.90;;;;;;5011048;28;20277;-29
2022/11/20 11:03:02;;;;;;;23.33;14.23;;;9.80;99.90;;;;;;4988333;28;20729;-30
2022/11/20 11:05:38;;;;;;;23.97;14.67;;;9.90;99.90;;;;;;5006137;28;20209;-29
2022/11/20 11:08:13;;;;;;;22.77;13.97;;;10.00;99.90;;;;;;5004053;28;20204;-29
2022/11/20 11:10:53;;;;;;;24.63;14.37;;;10.00;99.90;;;;;;5002043;28;20307;-29
2022/11/20 11:13:22;;;;;;;19.00;12.20;;;10.10;99.90;;;;;;5003258;28;20612;-29
2022/11/20 11:15:52;;;;;;;18.20;11.70;;;10.10;99.90;;;;;;5001449;28;20281;-29
2022/11/20 11:18:30;;;;;;;18.67;11.40;;;10.20;99.90;;;;;;5003228;28;20200;-29
2022/11/20 11:21:01;;;;;;;19.00;11.20;;;10.30;99.90;;;;;;4999617;28;20295;-29
2022/11/20 11:23:46;;;;;;;16.07;9.87;;;10.30;99.90;;;;;;4988980;28;20337;-30
2022/11/20 11:26:25;;;;;;;14.47;9.37;;;10.40;99.90;;;;;;5010609;28;20208;-29
2022/11/20 11:28:59;;;;;;;14.93;9.07;;;10.50;99.90;;;;;;5003218;28;20209;-29
2022/11/20 11:31:31;;;;;;;15.03;8.17;;;10.50;99.90;;;;;;4998611;28;20288;-30
2022/11/20 11:34:12;;;;;;;12.97;8.20;;;10.50;99.90;;;;;;5006541;28;20620;-29
2022/11/20 11:36:40;;;;;;;11.90;6.87;;;10.60;99.90;;;;;;4997989;28;20216;-29
2022/11/20 11:39:28;;;;;;;10.90;6.63;;;10.60;99.90;;;;;;5002771;28;20717;-29
2022/11/20 11:41:55;;;;;;;11.10;6.40;;;10.60;99.90;;;;;;5001735;28;20605;-30
2022/11/20 11:47:30;;;;;;;9.60;5.07;;;10.70;99.90;;;;;;5001531;28;20272;-30
2022/11/20 11:50:13;;;;;;;8.83;5.40;;;10.70;99.90;;;;;;4998583;28;20213;-29
2022/11/20 11:52:46;;;;;;;9.53;5.17;;;10.70;99.90;;;;;;4992202;28;20297;-30
2022/11/20 11:55:42;;;;;;;8.17;4.47;;;10.80;99.90;;;;;;4997947;28;20269;-29
2022/11/20 11:58:34;;;;;;;7.33;4.03;;;10.80;99.90;;;;;;5007035;28;20203;-29
2022/11/20 12:01:08;;;;;;;7.40;3.40;;;10.80;99.90;;;;;;5007593;28;20209;-29
2022/11/20 12:03:38;;;;;;;5.07;3.33;;;10.80;99.90;;;;;;5006688;28;20386;-29
2022/11/20 12:06:18;;;;;;;5.43;3.27;;;10.80;99.90;;;;;;5006336;28;20202;-30
2022/11/20 12:08:53;;;;;;;5.30;2.97;;;10.80;99.90;;;;;;5001090;28;20221;-29
2022/11/20 12:11:37;;;;;;;5.57;2.50;;;10.80;99.90;;;;;;5001414;28;20582;-29
2022/11/20 12:14:26;;;;;;;4.13;2.87;;;10.90;99.90;;;;;;5002756;28;20303;-29
2022/11/20 12:16:57;;;;;;;5.87;2.40;;;10.90;99.90;;;;;;5001603;28;20229;-29
2022/11/20 12:19:25;;;;;;;6.33;2.73;;;10.90;99.90;;;;;;5008334;28;20232;-30
2022/11/20 12:22:10;;;;;;;3.50;2.37;;;10.90;99.90;;;;;;5013211;28;20303;-29
2022/11/20 12:24:57;;;;;;;4.87;2.33;;;10.90;99.90;;;;;;5001227;28;20333;-29
2022/11/20 12:27:40;;;;;;;7.93;2.87;;;10.90;99.90;;;;;;5003766;28;20612;-30
2022/11/20 12:30:16;;;;;;;5.57;2.30;;;10.90;99.90;;;;;;5010232;28;20268;-29
2022/11/20 12:33:14;;;;;;;6.13;2.13;;;10.90;99.90;;;;;;5002393;28;20209;-29
2022/11/20 12:35:47;;;;;;;4.43;2.03;;;10.80;99.90;;;;;;5004041;28;20228;-29
2022/11/20 12:38:31;;;;;;;5.50;2.47;;;10.80;99.90;;;;;;5004238;28;20620;-29
2022/11/20 12:45:11;;;;;;;7.37;2.63;;;10.80;99.90;;;;;;4992660;28;20213;-29
2022/11/20 12:47:49;;;;;;;4.60;2.30;;;10.80;99.90;;;;;;5007140;28;20250;-30
2022/11/20 12:50:30;;;;;;;5.03;2.30;;;10.70;99.90;;;;;;5006901;28;20263;-29
2022/11/20 12:53:19;;;;;;;6.33;2.17;;;10.70;99.90;;;;;;5005684;28;20214;-29
2022/11/20 12:56:25;;;;;;;4.60;2.10;;;10.70;99.90;;;;;;4995957;28;20204;-30
2022/11/20 12:59:01;;;;;;;4.30;2.20;;;10.60;99.90;;;;;;5006552;28;20264;-30
2022/11/20 13:01:47;;;;;;;6.17;2.00;;;10.60;99.90;;;;;;4999850;28;20747;-29
2022/11/20 13:04:36;;;;;;;8.00;2.23;;;10.60;99.90;;;;;;5000903;28;20213;-29
2022/11/20 13:07:08;;;;;;;5.50;2.53;;;10.60;99.90;;;;;;5005163;28;20673;-29
2022/11/20 13:09:45;;;;;;;4.57;2.27;;;10.60;99.90;;;;;;5006536;28;20209;-30
2022/11/20 13:12:30;;;;;;;5.90;2.30;;;10.60;99.90;;;;;;5000098;28;20240;-29
2022/11/20 13:15:18;;;;;;;6.47;2.40;;;10.60;99.90;;;;;;4999062;28;20324;-29
2022/11/20 13:17:54;;;;;;;6.03;2.70;;;10.60;99.90;;;;;;5007252;28;20205;-29
2022/11/20 13:20:34;;;;;;;6.63;2.67;;;10.60;99.90;;;;;;5000951;28;21284;-29
2022/11/20 13:23:06;;;;;;;4.40;2.17;;;10.60;99.90;;;;;;5007998;28;20218;-29
2022/11/20 13:25:39;;;;;;;5.53;2.80;;;10.60;99.90;;;;;;5006062;28;20259;-29